Time;durP1;ratioP1;P1;durP2;ratioP2;P2;SDS_P1;SDS_P2;PMS_P1;PMS_P2;Temp;Humidity;BMP_temperature;BMP_pressure;BME280_temperature;BME280_humidity;BME280_pressure;Samples;Min_cycle;Max_cycle;Signal;HPM_P1;HPM_P2
2022/05/29 00:01:49;;;;;;;8.02;3.40;;;;;;;7.55;83.78;101842.03;5033515;28;20029;-85
2022/05/29 00:04:15;;;;;;;8.23;3.75;;;;;;;7.59;83.98;101843.63;5033805;28;20026;-86
2022/05/29 00:06:43;;;;;;;11.30;3.92;;;;;;;7.32;84.61;101794.00;5034077;28;20499;-84
2022/05/29 00:09:13;;;;;;;12.55;4.28;;;;;;;7.53;84.45;101823.28;5034006;28;20029;-85
2022/05/29 00:14:04;;;;;;;7.82;4.10;;;;;;;6.83;84.47;101699.78;5020407;23;20054;-85
2022/05/29 00:16:35;;;;;;;6.60;3.75;;;;;;;7.61;84.41;101836.72;5014113;28;20273;-85
2022/05/29 00:19:04;;;;;;;7.15;3.65;;;;;;;7.56;84.71;101818.00;5015466;28;20489;-85
2022/05/29 00:21:34;;;;;;;10.40;3.83;;;;;;;6.79;84.45;101677.69;5033982;28;20030;-84
2022/05/29 00:24:00;;;;;;;8.35;3.40;;;;;;;7.83;84.38;101829.06;5033730;28;20037;-83
2022/05/29 00:26:37;;;;;;;8.63;3.38;;;;;;;6.83;83.86;101640.75;5033716;28;20026;-84
2022/05/29 00:29:02;;;;;;;6.10;3.22;;;;;;;8.01;84.00;101825.00;5033426;28;20018;-84
2022/05/29 00:31:28;;;;;;;11.00;4.03;;;;;;;8.09;83.37;101820.44;5033524;28;20103;-85
2022/05/29 00:33:53;;;;;;;7.57;3.30;;;;;;;8.14;83.14;101818.50;5033390;28;20025;-85
2022/05/29 00:36:19;;;;;;;11.35;3.42;;;;;;;7.61;82.69;101727.91;5033435;28;20025;-85
2022/05/29 00:38:49;;;;;;;8.18;3.13;;;;;;;8.12;82.98;101793.75;5033455;28;20033;-84
2022/05/29 00:41:22;;;;;;;6.53;3.17;;;;;;;8.28;82.75;101816.28;5033207;28;20018;-84
2022/05/29 00:44:15;;;;;;;8.32;3.40;;;;;;;8.27;82.33;101806.88;5033240;28;20465;-85
2022/05/29 00:46:53;;;;;;;7.82;3.10;;;;;;;8.31;82.60;101805.03;5033433;28;20120;-84
2022/05/29 00:49:28;;;;;;;7.43;3.60;;;;;;;8.14;82.13;101779.09;5033031;28;20028;-86
2022/05/29 00:52:01;;;;;;;8.40;3.05;;;;;;;7.75;81.74;101711.06;5015504;28;20436;-85
2022/05/29 00:54:30;;;;;;;12.80;3.85;;;;;;;8.38;81.86;101805.69;5032915;28;20493;-82
2022/05/29 00:56:57;;;;;;;10.45;3.15;;;;;;;8.41;81.71;101797.81;5033144;28;20032;-82
2022/05/29 00:59:27;;;;;;;7.22;3.33;;;;;;;7.65;82.29;101673.75;5033366;28;20029;-82
2022/05/29 01:01:54;;;;;;;9.13;3.03;;;;;;;8.37;82.22;101804.84;5033091;28;20041;-85
2022/05/29 01:04:21;;;;;;;9.07;3.08;;;;;;;7.96;82.13;101729.16;5032768;28;20103;-85
2022/05/29 01:06:46;;;;;;;12.13;3.10;;;;;;;8.28;82.65;101789.72;5032874;28;20056;-85
2022/05/29 01:09:12;;;;;;;10.70;3.40;;;;;;;8.18;82.87;101778.94;5033089;28;20517;-81
2022/05/29 01:11:50;;;;;;;8.32;3.15;;;;;;;8.21;83.12;101795.97;5014862;28;20436;-81
2022/05/29 01:14:28;;;;;;;10.65;3.28;;;;;;;8.14;83.06;101795.34;5032802;28;20048;-85
2022/05/29 01:17:20;;;;;;;8.02;3.53;;;;;;;8.08;83.32;101793.03;5032644;28;20025;-81
2022/05/29 01:20:13;;;;;;;8.52;3.08;;;;;;;8.03;83.73;101789.78;5032459;28;20037;-85
2022/05/29 01:23:10;;;;;;;7.07;3.08;;;;;;;7.95;84.03;101790.03;5032877;28;20025;-85
2022/05/29 01:26:07;;;;;;;8.68;3.40;;;;;;;7.89;84.45;101781.75;5032751;28;20064;-85
2022/05/29 01:28:49;;;;;;;10.95;3.13;;;;;;;7.79;84.70;101775.25;5032920;28;20391;-85
2022/05/29 01:31:42;;;;;;;7.53;3.17;;;;;;;7.80;84.59;101777.78;5032512;28;20079;-85
2022/05/29 01:34:21;;;;;;;9.65;3.60;;;;;;;7.58;85.30;101762.28;5032410;28;20030;-85
2022/05/29 01:37:04;;;;;;;7.50;3.60;;;;;;;7.62;85.74;101781.00;5032337;28;20022;-85
2022/05/29 01:39:56;;;;;;;10.57;3.33;;;;;;;7.59;86.37;101770.81;5032645;28;20031;-83
2022/05/29 01:42:36;;;;;;;10.55;3.60;;;;;;;7.55;86.34;101771.81;5032304;28;20104;-83
2022/05/29 01:45:14;;;;;;;10.88;3.35;;;;;;;7.50;86.44;101766.00;5032977;28;20052;-84
2022/05/29 01:48:06;;;;;;;13.32;4.15;;;;;;;7.50;86.78;101774.56;5016187;28;20405;-86
2022/05/29 01:50:37;;;;;;;;;;;;;;;7.54;84.76;101760.69;5032391;28;20095;-83
2022/05/29 01:53:13;;;;;;;7.63;3.85;;;;;;;7.39;86.36;101723.53;5032490;28;20398;-84
2022/05/29 01:55:52;;;;;;;12.02;3.90;;;;;;;7.32;86.25;101709.22;5014128;28;20038;-83
2022/05/29 01:58:32;;;;;;;11.10;3.72;;;;;;;7.67;86.56;101748.22;5032389;28;20108;-85
2022/05/29 02:01:01;;;;;;;9.85;3.80;;;;;;;7.33;86.94;101692.06;5032551;28;20025;-86
2022/05/29 02:03:43;;;;;;;8.05;3.40;;;;;;;7.52;86.29;101707.66;5032318;28;20068;-86
2022/05/29 02:06:24;;;;;;;9.10;3.60;;;;;;;7.68;86.36;101725.06;5032296;28;20112;-85
2022/05/29 02:09:01;;;;;;;;;;;;;;;7.94;84.83;101754.09;5032883;28;20029;-86
2022/05/29 02:11:28;;;;;;;9.77;3.20;;;;;;;7.94;85.82;101748.97;5032092;28;20365;-84
2022/05/29 02:14:03;;;;;;;9.70;3.80;;;;;;;7.96;85.68;101747.16;5032009;28;20046;-85
2022/05/29 02:16:39;;;;;;;10.25;4.05;;;;;;;7.91;85.65;101744.78;5032449;28;20052;-82
2022/05/29 02:19:19;;;;;;;10.05;3.88;;;;;;;7.56;85.99;101697.22;5014223;28;20029;-82
2022/05/29 02:21:50;;;;;;;10.20;3.85;;;;;;;7.84;85.84;101742.47;5032092;28;20108;-85
2022/05/29 02:24:20;;;;;;;9.05;3.72;;;;;;;7.83;86.00;101743.38;5032192;28;20124;-86
2022/05/29 02:27:12;;;;;;;10.57;4.10;;;;;;;7.58;86.25;101710.03;5032019;28;20021;-86
2022/05/29 02:29:42;;;;;;;8.23;4.40;;;;;;;7.73;86.42;101737.72;5031683;28;20064;-86
2022/05/29 02:32:20;;;;;;;11.30;4.00;;;;;;;7.72;86.87;101736.06;5032047;28;20442;-84
2022/05/29 02:34:51;;;;;;;15.07;4.00;;;;;;;7.66;86.82;101729.41;5031889;28;20025;-85
2022/05/29 02:37:37;;;;;;;9.95;4.32;;;;;;;7.67;86.99;101723.38;5032056;28;20030;-85
2022/05/29 02:40:15;;;;;;;10.15;4.03;;;;;;;7.57;86.85;101704.06;5032279;28;20040;-82
2022/05/29 02:42:51;;;;;;;9.77;3.65;;;;;;;7.61;87.03;101700.47;5032128;28;20022;-85
2022/05/29 02:45:29;;;;;;;11.63;4.25;;;;;;;7.82;86.88;101716.84;5014162;28;20040;-86
2022/05/29 02:48:16;;;;;;;10.23;3.50;;;;;;;7.89;86.64;101720.03;5032045;28;20033;-86
2022/05/29 02:51:17;;;;;;;8.13;4.43;;;;;;;7.94;86.22;101707.81;5035198;28;20053;-85
2022/05/29 02:53:44;;;;;;;10.15;3.90;;;;;;;8.01;86.46;101710.09;4974397;28;20090;-86
2022/05/29 02:56:11;;;;;;;11.48;3.97;;;;;;;7.82;86.63;101685.13;4974199;28;20042;-86
2022/05/29 02:58:39;;;;;;;12.77;4.82;;;;;;;7.82;86.45;101673.13;4974501;28;20494;-85
2022/05/29 03:01:16;;;;;;;8.52;3.60;;;;;;;8.03;86.65;101703.16;4974490;28;20038;-84
2022/05/29 03:03:44;;;;;;;10.10;3.65;;;;;;;8.07;86.56;101705.63;4974237;28;20134;-84
2022/05/29 03:06:31;;;;;;;9.07;3.70;;;;;;;8.12;86.61;101709.69;4974138;28;20031;-85
2022/05/29 03:08:59;;;;;;;9.38;3.78;;;;;;;8.10;86.46;101701.19;4957578;28;20525;-85
2022/05/29 03:11:38;;;;;;;10.40;4.47;;;;;;;8.14;86.14;101704.47;4974176;28;20045;-85
2022/05/29 03:14:10;;;;;;;10.35;4.32;;;;;;;8.14;86.21;101710.47;4973818;28;20159;-83
2022/05/29 03:16:53;;;;;;;8.85;4.03;;;;;;;8.17;86.09;101704.38;4958282;28;20035;-84
2022/05/29 03:20:09;;;;;;;10.20;3.85;;;;;;;8.14;85.51;101697.59;4974208;28;20035;-85
2022/05/29 03:22:53;;;;;;;9.00;3.47;;;;;;;8.18;85.58;101704.31;4916832;29;20392;-84
2022/05/29 03:25:26;;;;;;;19.10;4.20;;;;;;;8.21;86.26;101706.75;4916598;29;20097;-86
2022/05/29 03:27:55;;;;;;;8.05;4.03;;;;;;;8.01;86.17;101668.09;4938354;29;20118;-86
2022/05/29 03:30:22;;;;;;;7.80;3.92;;;;;;;8.22;85.67;101700.72;4954583;29;20043;-84
2022/05/29 03:32:52;;;;;;;12.27;3.47;;;;;;;8.20;85.67;101704.25;4954611;29;20151;-85
2022/05/29 03:35:40;;;;;;;10.70;3.88;;;;;;;8.22;86.16;101698.13;4954542;29;20506;-86
2022/05/29 03:38:06;;;;;;;9.23;3.92;;;;;;;8.12;85.96;101686.53;4953984;29;20474;-84
2022/05/29 03:40:33;;;;;;;9.95;4.20;;;;;;;8.22;86.13;101698.13;4954452;29;20110;-85
2022/05/29 03:42:58;;;;;;;11.45;4.07;;;;;;;8.09;85.74;101678.09;4954248;29;20049;-85
2022/05/29 03:45:24;;;;;;;8.68;3.47;;;;;;;8.22;85.64;101693.00;4954312;29;20555;-86
2022/05/29 03:47:50;;;;;;;9.05;3.45;;;;;;;8.06;85.74;101671.31;4954303;29;20135;-85
2022/05/29 03:50:19;;;;;;;10.38;3.58;;;;;;;8.27;85.13;101696.25;4954268;29;20047;-85
2022/05/29 03:52:48;;;;;;;8.73;3.55;;;;;;;8.32;85.37;101694.31;4953961;29;20067;-84
2022/05/29 03:55:16;;;;;;;8.45;4.18;;;;;;;8.32;85.50;101693.47;4958203;28;20042;-85
2022/05/29 03:57:42;;;;;;;9.80;3.38;;;;;;;8.23;86.21;101673.25;5034249;28;20021;-83
2022/05/29 04:00:11;;;;;;;10.90;3.55;;;;;;;8.13;86.00;101654.75;5034153;28;20032;-85
2022/05/29 04:02:36;;;;;;;11.07;4.28;;;;;;;7.88;86.42;101600.91;5033816;28;20061;-84
2022/05/29 04:05:02;;;;;;;7.55;3.38;;;;;;;8.37;86.12;101677.88;5034224;28;20057;-85
2022/05/29 04:12:58;;;;;;;8.88;3.55;;;;;;;8.37;87.52;101663.28;5034019;28;20119;-85
2022/05/29 04:15:24;;;;;;;11.48;3.75;;;;;;;8.51;86.85;101678.16;5033950;28;20025;-85
2022/05/29 04:17:49;;;;;;;22.45;4.75;;;;;;;8.54;87.63;101670.31;5033702;28;20041;-85
2022/05/29 04:20:15;;;;;;;10.05;3.50;;;;;;;8.41;87.99;101653.69;5033630;28;20503;-85
2022/05/29 04:22:40;;;;;;;12.18;3.95;;;;;;;8.45;87.82;101653.50;5033607;23;20497;-82
2022/05/29 04:25:06;;;;;;;7.57;3.30;;;;;;;8.58;87.64;101675.28;5014172;28;20385;-85
2022/05/29 04:27:32;;;;;;;8.27;3.90;;;;;;;8.47;87.91;101656.88;5013675;28;20037;-85
2022/05/29 04:29:59;;;;;;;9.57;3.75;;;;;;;8.38;88.23;101661.53;5013989;28;20026;-84
2022/05/29 04:35:09;;;;;;;10.20;4.40;;;;;;;8.56;90.47;101700.25;5014033;28;20037;-85
2022/05/29 04:37:35;;;;;;;12.60;4.25;;;;;;;8.54;90.13;101703.75;5013841;28;20425;-85
2022/05/29 04:40:00;;;;;;;10.30;4.43;;;;;;;8.25;89.82;101663.72;5013703;28;20026;-82
2022/05/29 04:42:26;;;;;;;11.38;4.45;;;;;;;8.46;91.43;101685.25;5013703;28;20026;-82
2022/05/29 04:44:51;;;;;;;8.00;4.03;;;;;;;8.46;91.43;101675.78;4995386;28;20042;-82
2022/05/29 04:47:17;;;;;;;10.52;3.92;;;;;;;8.19;90.57;101633.09;5013499;28;20562;-83
2022/05/29 04:49:42;;;;;;;12.80;3.67;;;;;;;8.50;89.68;101673.91;5013452;28;20022;-83
2022/05/29 04:52:09;;;;;;;11.65;4.00;;;;;;;8.51;91.43;101675.59;5013722;28;20029;-83
2022/05/29 04:54:38;;;;;;;9.80;3.75;;;;;;;8.28;91.98;101636.16;4996361;28;20038;-84
2022/05/29 04:57:06;;;;;;;10.35;4.00;;;;;;;8.57;92.65;101673.59;5013587;28;20017;-85
2022/05/29 04:59:31;;;;;;;11.43;4.80;;;;;;;8.10;92.09;101592.31;5013106;28;20033;-86
2022/05/29 05:02:01;;;;;;;9.50;3.75;;;;;;;8.62;92.46;101665.69;5013616;28;20030;-83
2022/05/29 05:04:27;;;;;;;7.45;4.32;;;;;;;8.68;92.75;101668.00;5012996;28;20478;-80
2022/05/29 05:06:54;;;;;;;8.27;3.60;;;;;;;8.73;93.07;101668.63;5012968;28;20025;-79
2022/05/29 05:09:19;;;;;;;7.38;3.72;;;;;;;8.58;92.81;101639.22;5013186;28;20029;-85
2022/05/29 05:11:47;;;;;;;11.52;4.25;;;;;;;8.41;92.61;101608.19;5012449;28;20018;-86
2022/05/29 05:14:13;;;;;;;8.38;4.10;;;;;;;8.78;93.28;101666.72;5012827;28;20029;-86
2022/05/29 05:16:38;;;;;;;8.75;4.10;;;;;;;8.76;92.53;101671.09;4995330;28;20053;-86
2022/05/29 05:19:04;;;;;;;12.73;4.28;;;;;;;8.47;93.65;101596.81;5013263;28;20105;-85
2022/05/29 05:21:29;;;;;;;10.75;4.10;;;;;;;8.39;92.89;101573.13;5012965;28;20057;-86
2022/05/29 05:23:54;;;;;;;12.05;4.13;;;;;;;8.61;92.75;101591.91;5012759;28;20072;-84
2022/05/29 05:26:20;;;;;;;13.63;5.00;;;;;;;8.96;93.65;101646.25;5012949;28;20355;-85
2022/05/29 05:28:45;;;;;;;11.63;4.50;;;;;;;8.84;93.53;101626.97;5013139;28;20022;-81
2022/05/29 05:31:11;;;;;;;10.90;4.55;;;;;;;8.76;93.62;101606.72;5013028;28;20477;-84
2022/05/29 05:33:37;;;;;;;8.70;4.38;;;;;;;9.06;93.64;101645.78;5013041;28;20030;-84
2022/05/29 05:36:02;;;;;;;9.85;4.40;;;;;;;8.79;93.16;101592.88;5012954;28;20163;-80
2022/05/29 05:38:28;;;;;;;8.27;4.18;;;;;;;9.20;93.66;101647.75;5012958;28;20425;-87
2022/05/29 05:40:53;;;;;;;9.85;4.35;;;;;;;9.26;92.83;101644.91;5012692;28;20049;-86
2022/05/29 05:43:19;;;;;;;11.73;4.35;;;;;;;9.10;93.49;101597.50;5012771;28;20033;-86
2022/05/29 05:45:44;;;;;;;10.60;5.15;;;;;;;9.25;92.27;101607.16;5012971;28;20068;-82
2022/05/29 05:48:12;;;;;;;10.15;4.60;;;;;;;9.62;92.46;101649.28;5012669;28;20105;-82
2022/05/29 05:50:38;;;;;;;10.75;5.10;;;;;;;9.19;92.32;101571.34;5012709;28;20383;-83
2022/05/29 05:53:12;;;;;;;9.10;4.28;;;;;;;9.46;91.49;101593.28;5013137;28;20022;-86
2022/05/29 05:55:40;;;;;;;7.78;4.43;;;;;;;8.85;91.61;101482.72;5012742;28;20030;-79
2022/05/29 05:58:06;;;;;;;11.70;4.40;;;;;;;9.89;90.97;101631.69;5012852;28;20084;-85
2022/05/29 06:00:43;;;;;;;10.18;4.28;;;;;;;8.84;90.48;101451.84;5012619;28;20092;-84
2022/05/29 06:03:15;;;;;;;8.00;4.15;;;;;;;10.19;89.71;101650.03;5012850;28;20052;-82
2022/05/29 06:06:06;;;;;;;7.93;3.55;;;;;;;10.34;89.98;101645.03;4995310;28;20128;-83
2022/05/29 06:11:53;;;;;;;7.63;3.88;;;;;;;10.07;86.44;101540.50;5012783;28;20096;-84
2022/05/29 06:14:22;;;;;;;7.95;3.35;;;;;;;9.54;86.81;101417.59;5013549;28;20026;-84
2022/05/29 06:16:59;;;;;;;8.95;3.80;;;;;;;10.57;86.32;101563.81;5032318;28;20040;-82
2022/05/29 06:19:24;;;;;;;6.85;3.90;;;;;;;11.07;84.18;101627.53;5032272;28;20021;-85
2022/05/29 06:21:50;;;;;;;8.55;4.03;;;;;;;11.34;83.25;101640.78;5032101;28;20060;-80
2022/05/29 06:24:15;;;;;;;10.90;4.18;;;;;;;10.82;84.02;101534.13;5035202;28;20040;-84
2022/05/29 06:26:59;;;;;;;6.07;3.40;;;;;;;11.40;84.14;101621.50;5036048;28;20018;-83
2022/05/29 06:29:25;;;;;;;8.88;3.63;;;;;;;11.51;83.25;101632.13;5035956;28;20040;-83
2022/05/29 06:31:50;;;;;;;9.25;3.65;;;;;;;10.73;82.21;101503.63;5035824;28;20037;-85
2022/05/29 06:34:16;;;;;;;10.95;3.53;;;;;;;11.15;82.74;101576.28;5035811;28;20108;-85
2022/05/29 06:36:57;;;;;;;10.13;3.40;;;;;;;10.44;83.24;101438.84;5035556;28;20021;-84
2022/05/29 06:39:22;;;;;;;5.65;3.10;;;;;;;11.67;83.75;101624.34;5035820;28;20033;-78
2022/05/29 06:41:48;;;;;;;6.47;3.45;;;;;;;11.84;82.35;101638.97;5035771;28;20025;-80
2022/05/29 06:44:14;;;;;;;10.60;3.50;;;;;;;11.70;81.38;101599.16;5035634;28;20439;-85
2022/05/29 06:46:39;;;;;;;8.38;3.83;;;;;;;12.05;82.92;101641.19;5035978;28;20109;-79
2022/05/29 06:49:05;;;;;;;10.73;3.17;;;;;;;11.86;81.12;101627.63;5037540;28;20553;-78
2022/05/29 06:51:31;;;;;;;9.70;3.60;;;;;;;11.73;83.16;101627.44;5035339;28;20108;-82
2022/05/29 06:53:56;;;;;;;7.90;3.40;;;;;;;11.44;81.34;101599.72;5035201;28;20057;-86
2022/05/29 06:56:23;;;;;;;8.77;3.60;;;;;;;11.60;84.58;101643.69;5035607;28;20056;-79
2022/05/29 06:58:49;;;;;;;7.55;3.30;;;;;;;11.45;84.20;101645.38;5035317;28;20444;-75
2022/05/29 07:07:07;;;;;;;9.52;4.22;;;;;;;11.31;86.82;101604.75;5035698;28;20076;-80
2022/05/29 07:09:36;;;;;;;9.57;4.40;;;;;;;11.65;85.89;101639.94;5027294;28;20128;-80
2022/05/29 07:12:10;;;;;;;9.30;3.40;;;;;;;11.57;84.63;101608.47;5035225;28;20021;-86
2022/05/29 07:14:40;;;;;;;9.60;4.07;;;;;;;11.88;83.81;101637.88;5035227;28;20022;-82
2022/05/29 07:17:06;;;;;;;11.02;3.92;;;;;;;11.90;82.61;101620.53;5035272;28;20027;-88
2022/05/29 07:19:32;;;;;;;9.95;3.53;;;;;;;11.78;82.44;101591.78;5035091;28;20029;-84
2022/05/29 07:21:58;;;;;;;9.77;3.50;;;;;;;11.86;81.73;101598.31;5034699;28;20033;-87
2022/05/29 07:24:25;;;;;;;8.25;3.70;;;;;;;12.21;82.61;101636.00;5034590;28;20388;-87
2022/05/29 07:26:50;;;;;;;10.38;3.30;;;;;;;12.22;81.95;101632.50;5034785;28;20026;-87
2022/05/29 07:29:17;;;;;;;11.50;3.38;;;;;;;12.01;80.59;101587.94;5034802;28;20048;-87
2022/05/29 07:31:44;;;;;;;7.70;2.90;;;;;;;12.28;80.48;101636.47;5034962;28;20100;-81
2022/05/29 07:34:10;;;;;;;7.43;3.30;;;;;;;12.30;80.38;101625.13;5034015;28;20469;-88
2022/05/29 07:36:35;;;;;;;7.55;2.90;;;;;;;12.21;78.98;101612.69;5034779;28;20076;-84
2022/05/29 07:39:00;;;;;;;11.55;3.30;;;;;;;12.34;80.01;101629.19;5034308;28;20108;-86
2022/05/29 07:44:28;;;;;;;9.65;2.88;;;;;;;11.97;77.04;101506.19;5034856;28;20067;-81
2022/05/29 07:46:54;;;;;;;6.68;2.90;;;;;;;11.86;75.10;101436.09;5034022;28;20079;-88
2022/05/29 07:49:30;;;;;;;11.80;3.10;;;;;;;13.25;74.06;101577.97;5034513;28;20022;-81
2022/05/29 07:52:01;;;;;;;11.35;3.00;;;;;;;14.05;74.22;101620.47;5034472;28;20457;-79
2022/05/29 07:54:27;;;;;;;8.73;2.40;;;;;;;13.31;72.21;101432.34;5034093;28;20017;-86
2022/05/29 07:57:01;;;;;;;7.22;1.92;;;;;;;13.34;67.63;101442.50;5016393;28;20116;-80
2022/05/29 07:59:30;;;;;;;8.63;2.55;;;;;;;13.49;68.19;101487.41;5034333;28;20045;-80
2022/05/29 08:02:07;;;;;;;10.77;2.45;;;;;;;13.24;67.18;101418.09;5034025;28;20017;-80
2022/05/29 08:04:40;;;;;;;7.10;2.50;;;;;;;14.24;66.39;101552.56;5034117;28;20033;-80
2022/05/29 08:07:05;;;;;;;7.28;2.20;;;;;;;13.82;65.76;101455.81;5033964;28;20026;-81
2022/05/29 08:10:06;;;;;;;6.40;2.67;;;;;;;13.61;66.61;101413.13;5033931;28;20390;-81
2022/05/29 08:12:43;;;;;;;7.93;2.53;;;;;;;13.86;64.21;101490.16;5033979;28;20045;-81
2022/05/29 08:15:10;;;;;;;12.27;2.85;;;;;;;14.23;67.00;101605.44;5033974;28;20033;-85
2022/05/29 08:17:36;;;;;;;8.88;2.40;;;;;;;13.73;66.46;101587.03;5033892;28;20029;-80
2022/05/29 08:20:02;;;;;;;9.55;2.55;;;;;;;13.47;67.65;101601.69;5033739;28;20108;-82
2022/05/29 08:22:27;;;;;;;7.75;2.50;;;;;;;12.84;70.39;101510.50;5033750;28;20136;-84
2022/05/29 08:31:25;;;;;;;6.80;2.33;;;;;;;13.77;69.06;101606.69;5018793;28;20103;-80
2022/05/29 08:34:28;;;;;;;8.43;2.40;;;;;;;13.92;67.27;101601.44;5033556;28;20040;-83
2022/05/29 08:39:43;;;;;;;10.55;2.60;;;;;;;13.84;68.28;101550.00;5033157;28;20044;-81
2022/05/29 08:45:12;;;;;;;8.60;2.55;;;;;;;14.33;64.80;101525.97;5033590;28;20040;-83
2022/05/29 08:47:54;;;;;;;7.35;2.15;;;;;;;15.09;64.38;101598.75;5024718;28;20037;-81
2022/05/29 08:51:26;;;;;;;7.88;2.72;;;;;;;14.42;63.48;101426.59;5033518;28;20033;-82
2022/05/29 08:54:36;;;;;;;6.50;2.45;;;;;;;14.91;58.45;101428.38;4953151;28;20031;-79
2022/05/29 08:57:29;;;;;;;6.88;2.13;;;;;;;15.96;59.10;101581.28;4952737;28;20039;-81
2022/05/29 09:00:09;;;;;;;7.65;2.35;;;;;;;16.17;57.47;101560.63;4953236;28;20035;-81
2022/05/29 09:02:59;;;;;;;6.43;1.98;;;;;;;16.13;57.87;101586.06;4952916;28;20379;-77
2022/05/29 09:05:47;;;;;;;6.40;1.85;;;;;;;15.73;59.45;101575.13;4952981;28;20134;-80
2022/05/29 09:09:10;;;;;;;8.52;2.10;;;;;;;15.25;60.04;101535.22;4952895;28;20106;-78
2022/05/29 09:11:52;;;;;;;6.90;1.88;;;;;;;15.11;58.79;101585.63;4895669;29;20489;-78
2022/05/29 09:14:33;;;;;;;5.38;1.58;;;;;;;15.00;59.59;101578.56;4895731;29;20039;-82
2022/05/29 09:17:35;;;;;;;7.30;1.77;;;;;;;15.11;60.25;101570.84;4895786;29;20131;-82
2022/05/29 09:20:23;;;;;;;6.32;2.00;;;;;;;14.47;63.54;101507.72;4840052;29;20117;-86
2022/05/29 09:22:48;;;;;;;6.30;1.55;;;;;;;14.82;60.71;101552.06;4836474;29;20053;-81
2022/05/29 09:25:30;;;;;;;8.65;2.00;;;;;;;15.12;60.99;101559.50;4891954;29;20590;-78
2022/05/29 09:28:07;;;;;;;6.18;1.80;;;;;;;15.29;62.30;101547.91;4895647;29;20044;-81
2022/05/29 09:30:33;;;;;;;6.18;1.80;;;;;;;15.35;57.65;101490.22;4895466;29;20036;-81
2022/05/29 09:33:07;;;;;;;8.13;1.60;;;;;;;16.26;54.95;101545.13;4895750;29;20029;-84
2022/05/29 09:35:57;;;;;;;6.20;1.73;;;;;;;16.41;56.10;101548.31;4895539;29;20126;-78
2022/05/29 09:38:29;;;;;;;3.50;1.48;;;;;;;15.93;55.14;101505.97;4895588;29;20045;-86
2022/05/29 09:41:16;;;;;;;5.55;1.50;;;;;;;15.96;55.32;101548.25;4895865;29;20068;-85
2022/05/29 09:44:04;;;;;;;5.95;1.38;;;;;;;15.53;55.05;101541.88;4933171;29;20048;-78
2022/05/29 09:46:32;;;;;;;6.35;1.25;;;;;;;15.08;55.98;101549.44;4933177;29;20042;-80
2022/05/29 09:51:58;;;;;;;4.10;1.20;;;;;;;14.87;56.53;101550.00;4933623;29;20043;-80
2022/05/29 09:54:30;;;;;;;5.90;1.73;;;;;;;14.94;57.32;101547.78;4933050;29;20035;-83
2022/05/29 09:57:27;;;;;;;4.40;1.15;;;;;;;15.27;55.84;101526.38;4982603;28;20033;-80
2022/05/29 10:00:05;;;;;;;5.22;1.08;;;;;;;15.59;54.13;101521.44;4956277;29;20130;-84
2022/05/29 10:02:38;;;;;;;4.28;1.35;;;;;;;15.89;55.37;101541.81;4956066;28;20492;-83
2022/05/29 10:05:07;;;;;;;5.47;1.30;;;;;;;15.36;54.42;101532.69;4956076;28;20043;-88
2022/05/29 10:07:36;;;;;;;4.78;0.80;;;;;;;14.72;57.05;101545.00;4955775;29;20158;-81
2022/05/29 10:10:06;;;;;;;3.92;0.75;;;;;;;14.36;59.12;101556.97;4955987;29;20047;-80
2022/05/29 10:12:40;;;;;;;1.92;0.70;;;;;;;13.89;60.56;101549.72;4955665;28;20039;-80
2022/05/29 10:15:26;;;;;;;2.58;0.50;;;;;;;13.10;63.44;101560.75;4955838;29;20036;-88
2022/05/29 10:17:58;;;;;;;1.98;0.70;;;;;;;12.58;66.31;101546.59;4955803;29;20110;-87
2022/05/29 10:20:25;;;;;;;1.85;0.70;;;;;;;12.62;67.83;101548.09;4955737;29;20028;-87
2022/05/29 10:22:55;;;;;;;2.22;0.60;;;;;;;12.56;66.20;101532.06;4955612;28;20043;-88
2022/05/29 10:25:31;;;;;;;2.13;0.68;;;;;;;12.78;64.62;101541.97;4955907;29;20054;-88
2022/05/29 10:28:01;;;;;;;0.85;0.50;;;;;;;12.96;65.21;101535.66;4955547;28;20106;-88
2022/05/29 10:30:35;;;;;;;1.58;0.60;;;;;;;13.24;63.42;101521.03;4955743;29;20046;-87
2022/05/29 10:33:09;;;;;;;2.53;0.60;;;;;;;13.68;61.98;101544.16;4955882;28;20042;-88
2022/05/29 10:35:38;;;;;;;0.95;0.50;;;;;;;14.01;61.39;101541.94;4974245;28;20064;-87
2022/05/29 10:38:26;;;;;;;1.65;0.60;;;;;;;14.48;60.44;101548.34;5035919;28;20420;-87
2022/05/29 10:40:55;;;;;;;1.95;0.73;;;;;;;14.44;60.43;101514.84;5035766;28;20422;-88
2022/05/29 10:43:50;;;;;;;2.60;0.60;;;;;;;14.83;61.68;101551.13;5035163;28;20071;-86
2022/05/29 10:46:21;;;;;;;1.23;0.70;;;;;;;14.67;60.49;101544.50;5017328;28;20057;-86
2022/05/29 10:49:30;;;;;;;2.03;1.10;;;;;;;14.75;62.22;101557.78;5035136;28;20462;-81
2022/05/29 10:52:10;;;;;;;2.28;0.77;;;;;;;14.52;61.48;101555.00;5035372;28;20049;-84
2022/05/29 10:55:07;;;;;;;1.48;0.70;;;;;;;14.29;63.28;101558.28;5035466;28;20028;-84
2022/05/29 10:57:57;;;;;;;3.45;0.80;;;;;;;13.93;65.02;101554.59;5035215;28;20159;-86
2022/05/29 11:00:22;;;;;;;2.58;0.77;;;;;;;13.31;69.46;101549.06;5035309;28;20536;-79
2022/05/29 11:06:38;;;;;;;4.25;0.90;;;;;;;13.28;70.89;101545.84;5035527;28;20043;-83
2022/05/29 11:09:17;;;;;;;3.75;1.10;;;;;;;13.66;70.82;101544.22;4954053;28;20034;-86
2022/05/29 11:12:01;;;;;;;4.13;0.88;;;;;;;13.88;67.68;101550.63;4954937;29;20031;-86
2022/05/29 11:15:03;;;;;;;4.75;1.10;;;;;;;14.20;68.73;101546.75;4954969;28;20043;-82
2022/05/29 11:17:53;;;;;;;3.20;1.30;;;;;;;14.47;68.92;101549.28;4897752;29;20055;-83
2022/05/29 11:20:51;;;;;;;3.45;1.30;;;;;;;14.95;66.27;101541.66;4897655;29;20042;-85
2022/05/29 11:23:45;;;;;;;2.92;0.90;;;;;;;15.27;65.51;101530.75;4897352;29;20576;-89
2022/05/29 11:26:10;;;;;;;3.33;1.10;;;;;;;15.36;63.79;101530.09;4897810;29;20405;-87
2022/05/29 11:29:06;;;;;;;3.00;1.05;;;;;;;15.76;64.65;101533.25;4897596;29;20047;-88
2022/05/29 11:32:08;;;;;;;3.63;1.00;;;;;;;15.78;64.88;101534.78;4897674;29;20243;-85
2022/05/29 11:34:46;;;;;;;3.17;1.20;;;;;;;15.08;67.82;101550.25;4897585;29;20079;-87
2022/05/29 11:37:48;;;;;;;2.85;1.27;;;;;;;14.26;68.20;101528.16;4881736;29;20136;-90
2022/05/29 11:40:19;;;;;;;2.72;0.80;;;;;;;13.81;69.96;101549.38;4921405;29;20492;-89
2022/05/29 11:42:45;;;;;;;2.13;0.90;;;;;;;13.76;72.44;101536.66;4954354;29;20055;-89
2022/05/29 11:45:17;;;;;;;2.50;0.80;;;;;;;13.53;69.58;101521.75;4954366;29;20079;-84
2022/05/29 11:53:49;;;;;;;2.15;0.60;;;;;;;13.32;70.65;101548.16;4956116;28;20049;-85
2022/05/29 11:56:22;;;;;;;2.28;0.40;;;;;;;12.70;71.23;101511.38;5016338;28;20049;-85
2022/05/29 11:58:56;;;;;;;2.22;0.50;;;;;;;12.67;72.30;101519.31;5034226;28;20025;-87
2022/05/29 12:01:27;;;;;;;1.95;0.50;;;;;;;12.93;73.29;101521.16;5034203;28;20381;-82
2022/05/29 12:04:01;;;;;;;1.87;0.60;;;;;;;12.88;71.75;101496.41;5034176;28;20029;-88
2022/05/29 12:06:33;;;;;;;1.17;0.38;;;;;;;13.49;72.78;101529.75;5033919;28;20334;-81
2022/05/29 12:09:17;;;;;;;2.97;0.60;;;;;;;13.93;68.99;101520.00;5034191;28;20022;-82
2022/05/29 12:12:07;;;;;;;1.27;0.60;;;;;;;14.41;69.61;101512.47;5034160;28;20022;-86
2022/05/29 12:14:39;;;;;;;1.73;0.60;;;;;;;14.39;69.02;101496.97;5033801;28;20033;-90
2022/05/29 12:17:24;;;;;;;1.23;0.55;;;;;;;14.45;70.82;101519.13;5034021;28;20022;-90
2022/05/29 12:20:06;;;;;;;1.45;0.70;;;;;;;14.49;70.86;101526.63;5033993;28;20037;-86
2022/05/29 12:22:38;;;;;;;2.30;0.63;;;;;;;14.20;69.65;101525.97;5015861;28;20519;-86
2022/05/29 12:25:20;;;;;;;2.67;0.80;;;;;;;13.75;69.38;101524.63;5033690;28;20503;-84
2022/05/29 12:27:48;;;;;;;2.92;0.90;;;;;;;13.10;71.91;101533.06;5033843;28;20081;-84
2022/05/29 12:30:29;;;;;;;3.03;0.70;;;;;;;12.46;76.73;101528.38;5033790;28;20018;-80
2022/05/29 12:32:55;;;;;;;2.28;1.20;;;;;;;12.02;82.17;101532.66;5033751;28;20382;-81
2022/05/29 12:35:35;;;;;;;2.65;0.95;;;;;;;11.20;80.57;101463.09;5033716;28;20025;-83
2022/05/29 12:38:21;;;;;;;4.40;0.90;;;;;;;11.58;83.65;101527.38;5015770;28;20052;-86
2022/05/29 12:41:05;;;;;;;4.75;1.27;;;;;;;11.68;82.90;101523.34;5033686;28;20092;-78
2022/05/29 12:43:49;;;;;;;2.67;1.00;;;;;;;12.03;83.95;101520.53;5033208;28;20180;-81
2022/05/29 12:46:20;;;;;;;4.20;1.20;;;;;;;12.47;80.33;101509.31;5033431;28;20053;-81
2022/05/29 12:49:07;;;;;;;3.42;1.08;;;;;;;12.72;79.23;101506.91;5033376;28;20026;-80